createdAt,value
2022-11-15T05:02:53.747Z,98.81
2022-11-15T05:05:20.612Z,98.61
2022-11-15T05:07:47.141Z,98.52
2022-11-15T05:10:13.722Z,98.39
2022-11-15T05:12:40.320Z,98.08
2022-11-15T05:15:07.465Z,98.05
2022-11-15T05:17:34.016Z,97.90
2022-11-15T05:20:00.700Z,98.05
2022-11-15T05:22:28.332Z,97.81
2022-11-15T05:24:54.869Z,97.65
2022-11-15T05:27:25.319Z,97.51
2022-11-15T05:29:51.836Z,97.48
2022-11-15T05:32:19.230Z,97.50
2022-11-15T05:34:46.548Z,97.42
2022-11-15T05:37:14.308Z,97.45
2022-11-15T05:39:40.857Z,97.43
2022-11-15T05:42:13.198Z,97.52
2022-11-15T05:44:44.191Z,97.32
2022-11-15T05:47:14.762Z,97.25
2022-11-15T05:49:44.661Z,97.45
2022-11-15T05:52:14.707Z,97.44
2022-11-15T05:54:41.974Z,97.65
2022-11-15T05:57:08.894Z,97.32
2022-11-15T05:59:36.101Z,97.06
2022-11-15T06:02:03.912Z,97.09
2022-11-15T06:04:30.557Z,97.30
2022-11-15T06:06:59.610Z,97.35
2022-11-15T06:09:26.234Z,97.13
2022-11-15T06:11:52.782Z,97.33
2022-11-15T06:14:19.316Z,97.16
2022-11-15T06:16:45.857Z,97.12
2022-11-15T06:19:12.445Z,96.82
2022-11-15T06:21:38.955Z,96.67
2022-11-15T06:24:06.708Z,96.87
2022-11-15T06:26:33.276Z,96.71
2022-11-15T06:28:59.954Z,96.88
2022-11-15T06:31:26.530Z,96.91
2022-11-15T06:33:53.083Z,96.89
2022-11-15T06:36:19.659Z,97.23
2022-11-15T06:38:46.292Z,97.06
2022-11-15T06:41:15.172Z,96.96
2022-11-15T06:43:42.241Z,96.91
2022-11-15T06:46:09.469Z,96.91
2022-11-15T06:48:37.243Z,96.60
2022-11-15T06:51:05.865Z,96.45
2022-11-15T06:53:33.567Z,96.24
2022-11-15T06:56:05.910Z,96.14
2022-11-15T06:58:33.071Z,96.47
2022-11-15T07:01:01.967Z,96.45
2022-11-15T07:03:29.506Z,96.22
2022-11-15T07:06:01.402Z,96.01
2022-11-15T07:08:32.859Z,96.17
2022-11-15T07:11:04.839Z,96.21
2022-11-15T07:13:36.079Z,96.40
2022-11-15T07:16:04.950Z,96.40
2022-11-15T07:18:31.785Z,96.25
2022-11-15T07:21:02.913Z,96.32
2022-11-15T07:23:29.850Z,96.29
2022-11-15T07:25:59.481Z,96.13
2022-11-15T07:28:27.085Z,96.18
2022-11-15T07:30:54.170Z,96.03
2022-11-15T07:33:20.905Z,95.85
2022-11-15T07:35:50.628Z,95.52
2022-11-15T07:38:20.989Z,95.32
2022-11-15T07:40:48.124Z,95.34
2022-11-15T07:43:14.711Z,95.29
2022-11-15T07:45:43.738Z,95.17
2022-11-15T07:48:10.408Z,94.72
2022-11-15T07:50:40.948Z,94.83
2022-11-15T07:53:09.571Z,94.43
2022-11-15T07:55:36.424Z,94.68
2022-11-15T07:58:04.754Z,94.80
2022-11-15T08:00:32.041Z,94.77
2022-11-15T08:03:12.114Z,94.43
2022-11-15T08:05:40.165Z,94.40
2022-11-15T08:08:07.703Z,94.41
2022-11-15T08:10:40.299Z,94.38
2022-11-15T08:13:10.565Z,94.11
2022-11-15T08:15:38.365Z,93.86
2022-11-15T08:18:12.659Z,93.59
2022-11-15T08:20:41.968Z,92.94
2022-11-15T08:23:09.191Z,91.98
2022-11-15T08:25:36.263Z,90.89
2022-11-15T08:28:06.502Z,89.83
2022-11-15T08:30:42.593Z,89.06
2022-11-15T08:33:13.032Z,88.13
2022-11-15T08:35:43.592Z,87.03
2022-11-15T08:38:10.447Z,85.69
2022-11-15T08:40:37.903Z,84.75
2022-11-15T08:43:05.157Z,83.31
2022-11-15T08:45:32.830Z,83.32
2022-11-15T08:48:04.599Z,84.53
2022-11-15T08:50:31.376Z,84.76
2022-11-15T08:52:57.891Z,84.16
2022-11-15T08:55:25.219Z,85.71
2022-11-15T08:57:51.926Z,84.79
2022-11-15T09:00:20.852Z,82.79
2022-11-15T09:02:47.865Z,81.26
2022-11-15T09:05:16.125Z,80.28
2022-11-15T09:07:42.938Z,78.21
2022-11-15T09:10:09.815Z,76.36
2022-11-15T09:12:36.461Z,77.04
2022-11-15T09:15:03.433Z,75.57
2022-11-15T09:17:29.988Z,74.75
2022-11-15T09:19:56.879Z,75.86
2022-11-15T09:22:23.513Z,75.99
2022-11-15T09:24:50.507Z,75.43
2022-11-15T09:27:17.032Z,74.88
2022-11-15T09:29:43.936Z,77.57
2022-11-15T09:32:10.550Z,76.50
2022-11-15T09:34:37.242Z,76.00
2022-11-15T09:37:04.008Z,75.76
2022-11-15T09:39:30.594Z,75.43
2022-11-15T09:42:23.462Z,75.68
2022-11-15T09:45:18.415Z,74.47
2022-11-15T09:47:57.772Z,72.49
2022-11-15T09:51:00.128Z,71.86
2022-11-15T09:54:13.688Z,71.89
2022-11-15T09:56:27.665Z,71.50
2022-11-15T09:59:29.938Z,71.80
2022-11-15T10:02:08.685Z,71.44
2022-11-15T10:04:38.156Z,69.62
2022-11-15T10:07:19.809Z,71.04
2022-11-15T10:09:52.648Z,69.67
2022-11-15T10:12:19.909Z,69.48
2022-11-15T10:14:54.447Z,68.86
2022-11-15T10:17:52.889Z,69.08
2022-11-15T10:20:23.523Z,70.57
2022-11-15T10:22:53.229Z,70.85
2022-11-15T10:25:23.611Z,69.02
2022-11-15T10:27:58.116Z,68.63
2022-11-15T10:30:32.683Z,69.11
2022-11-15T10:33:01.769Z,69.03
2022-11-15T10:35:30.904Z,69.70
2022-11-15T10:38:09.541Z,69.07
2022-11-15T10:40:37.659Z,67.89
2022-11-15T10:43:16.292Z,67.26
2022-11-15T10:45:43.907Z,67.76
2022-11-15T10:48:13.498Z,68.00
2022-11-15T10:50:41.305Z,67.30
2022-11-15T10:53:21.736Z,67.53
2022-11-15T10:55:50.656Z,66.55
2022-11-15T10:58:37.099Z,65.37
2022-11-15T11:01:33.267Z,65.33
2022-11-15T11:04:02.609Z,63.25
2022-11-15T11:06:30.109Z,65.63
2022-11-15T11:09:01.606Z,65.48
2022-11-15T11:11:51.349Z,64.60
2022-11-15T11:14:28.340Z,63.87
2022-11-15T11:17:13.025Z,65.37
2022-11-15T11:20:18.696Z,67.95
2022-11-15T11:23:00.293Z,67.29
2022-11-15T11:25:49.343Z,68.81
2022-11-15T11:28:40.887Z,69.30
2022-11-15T11:31:22.573Z,68.90
2022-11-15T11:34:34.083Z,67.64
2022-11-15T11:37:05.105Z,67.64
2022-11-15T11:39:42.805Z,67.34
2022-11-15T11:42:32.953Z,66.62
2022-11-15T11:45:29.980Z,65.10
2022-11-15T11:48:25.496Z,63.99
2022-11-15T11:50:54.562Z,62.78
2022-11-15T11:53:32.152Z,62.13
2022-11-15T11:56:04.341Z,62.68
2022-11-15T11:58:39.324Z,61.70
2022-11-15T12:01:26.482Z,61.10
2022-11-15T12:04:16.998Z,61.02
2022-11-15T12:06:51.699Z,61.29
2022-11-15T12:09:30.776Z,61.25
2022-11-15T12:12:22.411Z,60.84
2022-11-15T12:14:56.136Z,61.16
2022-11-15T12:17:32.834Z,60.93
2022-11-15T12:20:10.315Z,60.71
2022-11-15T12:22:44.320Z,61.22
2022-11-15T12:25:26.627Z,60.25
2022-11-15T12:28:02.716Z,60.80
2022-11-15T12:30:46.266Z,60.14
2022-11-15T12:33:36.953Z,60.01
2022-11-15T12:36:37.291Z,59.82
2022-11-15T12:39:10.783Z,61.32
2022-11-15T12:41:41.643Z,62.46
2022-11-15T12:44:37.120Z,63.57
2022-11-15T12:47:23.580Z,63.97
2022-11-15T12:49:50.849Z,65.31
2022-11-15T12:52:17.936Z,65.35
2022-11-15T12:54:52.295Z,65.85
2022-11-15T12:57:32.526Z,65.08
2022-11-15T12:59:59.832Z,66.50
2022-11-15T13:02:47.494Z,68.58
2022-11-15T13:05:19.148Z,70.01
2022-11-15T13:07:45.882Z,70.36
2022-11-15T13:10:28.163Z,71.50
2022-11-15T13:13:44.424Z,71.40
2022-11-15T13:16:11.950Z,70.45
2022-11-15T13:18:41.245Z,69.99
2022-11-15T13:21:42.550Z,70.54
2022-11-15T13:24:17.994Z,70.87
2022-11-15T13:26:45.122Z,71.26
2022-11-15T13:29:20.393Z,71.21
2022-11-15T13:31:48.138Z,71.04
2022-11-15T13:34:50.000Z,71.03
2022-11-15T13:37:29.824Z,71.32
2022-11-15T13:40:12.022Z,71.25
2022-11-15T13:42:44.584Z,71.19
2022-11-15T13:45:16.142Z,70.87
2022-11-15T13:47:42.780Z,70.64
2022-11-15T13:50:14.328Z,71.11
2022-11-15T13:52:44.209Z,71.11
2022-11-15T13:55:15.752Z,71.21
2022-11-15T13:57:49.419Z,71.62
2022-11-15T14:00:40.125Z,72.05
2022-11-15T14:03:20.181Z,72.14
2022-11-15T14:06:05.409Z,72.74
2022-11-15T14:08:32.368Z,73.08
2022-11-15T14:11:14.594Z,73.01
2022-11-15T14:13:41.670Z,73.06
2022-11-15T14:16:16.409Z,73.55
2022-11-15T14:18:52.156Z,73.28
2022-11-15T14:21:20.138Z,73.58
2022-11-15T14:23:47.155Z,73.90
2022-11-15T14:26:33.362Z,73.86
2022-11-15T14:29:33.073Z,74.33
2022-11-15T14:32:18.432Z,74.28
2022-11-15T14:34:45.170Z,74.60
2022-11-15T14:37:25.186Z,74.74
2022-11-15T14:39:52.804Z,74.86
2022-11-15T14:42:20.635Z,74.57
2022-11-15T14:44:47.711Z,74.88
2022-11-15T14:47:14.539Z,74.80
2022-11-15T14:49:41.091Z,74.92
2022-11-15T14:52:37.286Z,74.72
2022-11-15T14:55:12.793Z,74.98
2022-11-15T14:57:39.309Z,75.09
2022-11-15T15:00:06.580Z,74.76
2022-11-15T15:02:33.452Z,74.66
2022-11-15T15:05:02.141Z,75.22
2022-11-15T15:07:28.902Z,75.03
2022-11-15T15:10:11.362Z,74.97
2022-11-15T15:12:42.068Z,75.30
2022-11-15T15:15:17.276Z,75.68
2022-11-15T15:17:44.330Z,75.80
2022-11-15T15:20:11.452Z,75.62
2022-11-15T15:22:38.632Z,75.63
2022-11-15T15:25:20.855Z,75.47
2022-11-15T15:27:47.385Z,75.80
2022-11-15T15:30:14.101Z,75.65
2022-11-15T15:32:40.649Z,75.88
2022-11-15T15:35:07.559Z,75.76
2022-11-15T15:37:35.062Z,75.88
2022-11-15T15:40:01.814Z,75.71
2022-11-15T15:42:28.334Z,75.99
2022-11-15T15:44:54.906Z,76.02
2022-11-15T15:47:23.810Z,75.98
2022-11-15T15:49:51.413Z,76.90
2022-11-15T15:52:18.428Z,77.16
2022-11-15T15:54:45.241Z,77.38
2022-11-15T15:57:15.272Z,77.40
2022-11-15T15:59:41.821Z,77.32
2022-11-15T16:02:13.008Z,77.22
2022-11-15T16:04:40.030Z,77.92
2022-11-15T16:07:07.016Z,78.10
2022-11-15T16:09:52.395Z,78.66
2022-11-15T16:12:18.879Z,79.21
2022-11-15T16:14:45.488Z,79.47
2022-11-15T16:17:21.406Z,79.53
2022-11-15T16:19:48.056Z,80.31
2022-11-15T16:22:14.778Z,80.97
2022-11-15T16:24:41.371Z,81.44
2022-11-15T16:27:15.183Z,82.40
2022-11-15T16:29:41.970Z,82.40
2022-11-15T16:32:08.558Z,83.56
2022-11-15T16:34:40.479Z,85.32
2022-11-15T16:37:23.704Z,85.97
2022-11-15T16:39:50.729Z,86.91
2022-11-15T16:42:17.404Z,87.64
2022-11-15T16:44:44.934Z,87.98
2022-11-15T16:47:21.127Z,88.35
2022-11-15T16:49:48.084Z,88.98
2022-11-15T16:52:20.119Z,89.50
2022-11-15T16:54:47.959Z,89.77
2022-11-15T16:57:14.588Z,89.61
2022-11-15T16:59:41.108Z,89.65
2022-11-15T17:02:13.780Z,89.98
2022-11-15T17:04:40.485Z,89.85
2022-11-15T17:07:07.092Z,90.37
2022-11-15T17:09:34.379Z,90.98
2022-11-15T17:12:01.003Z,91.22
2022-11-15T17:14:27.546Z,91.15
2022-11-15T17:16:55.376Z,91.53
2022-11-15T17:19:22.176Z,91.86
2022-11-15T17:21:51.813Z,92.27
2022-11-15T17:24:20.910Z,92.32
2022-11-15T17:26:47.732Z,92.97
2022-11-15T17:29:14.262Z,93.10
2022-11-15T17:31:40.799Z,93.22
2022-11-15T17:34:07.735Z,93.70
2022-11-15T17:36:34.976Z,93.79
2022-11-15T17:39:01.921Z,93.69
2022-11-15T17:41:29.079Z,94.18
2022-11-15T17:44:00.054Z,94.25
2022-11-15T17:46:28.018Z,94.75
2022-11-15T17:48:55.596Z,94.78
2022-11-15T17:51:24.196Z,94.44
2022-11-15T17:53:51.596Z,94.56
2022-11-15T17:56:20.892Z,94.87
2022-11-15T17:58:55.495Z,95.10
2022-11-15T18:01:27.820Z,94.94
2022-11-15T18:03:56.061Z,94.88
2022-11-15T18:06:24.796Z,94.80
2022-11-15T18:08:53.566Z,95.06
2022-11-15T18:11:26.183Z,95.11
2022-11-15T18:13:57.504Z,95.03
2022-11-15T18:16:26.249Z,95.11
2022-11-15T18:18:54.002Z,94.99
2022-11-15T18:21:25.837Z,95.38
2022-11-15T18:23:57.798Z,95.22
2022-11-15T18:26:27.635Z,95.10
2022-11-15T18:29:03.433Z,95.06
2022-11-15T18:31:31.454Z,94.89
2022-11-15T18:34:01.164Z,95.04
2022-11-15T18:36:30.003Z,94.88
2022-11-15T18:39:04.647Z,95.12
2022-11-15T18:41:32.790Z,94.91
2022-11-15T18:44:01.217Z,94.97
2022-11-15T18:46:30.817Z,95.24
2022-11-15T18:49:00.335Z,95.48
2022-11-15T18:51:30.160Z,95.33
2022-11-15T18:53:58.970Z,95.46
2022-11-15T18:56:26.913Z,95.62
2022-11-15T18:58:58.341Z,95.95
2022-11-15T19:01:27.759Z,95.84
2022-11-15T19:03:56.907Z,95.97
2022-11-15T19:06:27.787Z,96.13
2022-11-15T19:08:56.429Z,96.11
2022-11-15T19:11:35.830Z,95.91
2022-11-15T19:14:14.021Z,96.01
2022-11-15T19:16:44.648Z,96.04
2022-11-15T19:19:16.879Z,96.20
2022-11-15T19:21:44.169Z,96.39
2022-11-15T19:24:11.074Z,96.62
2022-11-15T19:26:38.174Z,96.62
2022-11-15T19:29:07.437Z,96.54
2022-11-15T19:31:34.343Z,96.66
2022-11-15T19:34:04.574Z,96.78
2022-11-15T19:36:42.219Z,96.96
2022-11-15T19:39:12.936Z,97.01
2022-11-15T19:41:42.401Z,97.06
2022-11-15T19:44:10.127Z,96.94
2022-11-15T19:46:37.705Z,97.06
2022-11-15T19:49:07.103Z,97.01
2022-11-15T19:51:33.776Z,97.23
2022-11-15T19:54:06.494Z,97.16
2022-11-15T19:56:34.761Z,97.20
2022-11-15T19:59:02.150Z,97.09
2022-11-15T20:01:31.356Z,97.23
2022-11-15T20:03:59.611Z,97.36
2022-11-15T20:06:32.021Z,97.35
2022-11-15T20:08:58.809Z,97.31
2022-11-15T20:11:26.475Z,97.41
2022-11-15T20:14:02.191Z,97.30
2022-11-15T20:16:29.579Z,97.29
2022-11-15T20:18:56.245Z,97.21
2022-11-15T20:21:22.856Z,97.37
2022-11-15T20:23:51.132Z,97.52
2022-11-15T20:26:19.193Z,97.52
2022-11-15T20:28:45.883Z,97.46
2022-11-15T20:31:13.141Z,97.61
2022-11-15T20:33:40.003Z,97.71
2022-11-15T20:36:08.511Z,97.81
2022-11-15T20:38:35.416Z,97.76
2022-11-15T20:41:02.328Z,97.84
2022-11-15T20:43:28.916Z,97.81
2022-11-15T20:45:55.708Z,97.40
2022-11-15T20:48:22.250Z,97.22
2022-11-15T20:50:49.202Z,97.11
2022-11-15T20:53:18.163Z,97.25
2022-11-15T20:55:50.956Z,97.32
2022-11-15T20:58:17.767Z,97.19
2022-11-15T21:00:46.125Z,97.10
2022-11-15T21:03:14.406Z,97.13
2022-11-15T21:05:43.277Z,97.26
2022-11-15T21:08:11.586Z,97.16
2022-11-15T21:10:57.165Z,97.20
2022-11-15T21:13:23.652Z,97.16
2022-11-15T21:15:50.290Z,97.23
2022-11-15T21:18:16.890Z,97.23
2022-11-15T21:20:43.600Z,97.26
2022-11-15T21:23:11.514Z,97.24
2022-11-15T21:25:38.039Z,97.25
2022-11-15T21:28:04.700Z,97.23
2022-11-15T21:30:31.238Z,97.17
2022-11-15T21:32:57.824Z,97.38
2022-11-15T21:35:24.471Z,97.55
2022-11-15T21:37:56.392Z,97.71
2022-11-15T21:40:23.260Z,97.90
2022-11-15T21:42:49.897Z,98.09
2022-11-15T21:45:16.670Z,98.22
2022-11-15T21:47:46.094Z,98.33
2022-11-15T21:50:14.060Z,98.40
2022-11-15T21:52:41.104Z,98.51
2022-11-15T21:55:08.453Z,98.52
2022-11-15T21:57:35.011Z,98.46
2022-11-15T22:00:20.084Z,98.56
2022-11-15T22:02:46.665Z,98.72
2022-11-15T22:05:13.209Z,98.84
2022-11-15T22:07:39.824Z,98.87
2022-11-15T22:10:08.050Z,98.77
2022-11-15T22:12:34.529Z,98.88
